createdAt,value
2019-01-11T00:00:18.618Z,0.9
2019-01-11T00:02:19.208Z,2.2
2019-01-11T00:04:18.807Z,4.3
2019-01-11T00:06:18.950Z,3.4
2019-01-11T00:08:18.549Z,1.6
2019-01-11T00:10:18.603Z,1.6
2019-01-11T00:12:19.199Z,2.6
2019-01-11T00:14:18.840Z,7.9
2019-01-11T00:16:19.520Z,2.1
2019-01-11T00:18:19.197Z,1.9
2019-01-11T00:20:18.822Z,1.4
2019-01-11T00:22:19.425Z,0.9
2019-01-11T00:24:19.035Z,2.1
2019-01-11T00:26:19.235Z,1.8
2019-01-11T00:28:18.838Z,1.3
2019-01-11T00:30:19.486Z,1.2
2019-01-11T00:32:19.090Z,1.2
2019-01-11T00:34:18.690Z,1.2
2019-01-11T00:36:19.369Z,2.3
2019-01-11T00:38:18.966Z,1.4
2019-01-11T00:40:19.011Z,2.1
2019-01-11T00:42:18.613Z,3.1
2019-01-11T00:44:19.220Z,5.8
2019-01-11T00:46:19.382Z,1.5
2019-01-11T00:48:18.993Z,2.8
2019-01-11T00:50:18.622Z,1.9
2019-01-11T00:52:19.234Z,1.8
2019-01-11T00:54:18.843Z,1.8
2019-01-11T00:56:19.031Z,3.4
2019-01-11T00:58:18.641Z,3.8
2019-01-11T01:00:19.268Z,3.7
2019-01-11T01:02:18.869Z,1.9
2019-01-11T01:04:19.470Z,4.5
2019-01-11T01:06:19.164Z,5.1
2019-01-11T01:08:18.765Z,2.1
2019-01-11T01:10:18.808Z,6.7
2019-01-11T01:12:19.417Z,9.6
2019-01-11T01:14:19.016Z,9.3
2019-01-11T01:16:19.225Z,1.6
2019-01-11T01:18:18.912Z,3.5
2019-01-11T01:20:19.547Z,2.3
2019-01-11T01:22:19.151Z,2.2
2019-01-11T01:24:18.763Z,4.4
2019-01-11T01:26:18.927Z,3
2019-01-11T01:28:19.525Z,2.6
2019-01-11T01:30:19.148Z,11.7
2019-01-11T01:32:18.760Z,3.2
2019-01-11T01:34:19.387Z,2.6
2019-01-11T01:36:18.620Z,10.3
2019-01-11T01:38:19.226Z,8.2
2019-01-11T01:40:19.273Z,5.1
2019-01-11T01:42:18.894Z,8.2
2019-01-11T01:44:19.514Z,4.4
2019-01-11T01:46:18.700Z,6.6
2019-01-11T01:48:19.307Z,14
2019-01-11T01:50:18.951Z,3.5
2019-01-11T01:52:18.565Z,6.1
2019-01-11T01:54:19.186Z,3.8
2019-01-11T01:56:19.369Z,6.6
2019-01-11T01:58:18.983Z,11.1
2019-01-11T02:00:18.615Z,3.8
2019-01-11T02:02:19.212Z,8.5
2019-01-11T02:04:18.798Z,4.4
2019-01-11T02:06:19.018Z,8
2019-01-11T02:08:18.626Z,9.8
2019-01-11T02:10:18.674Z,6.4
2019-01-11T02:12:19.296Z,6.2
2019-01-11T02:14:18.910Z,4.3
2019-01-11T02:16:18.679Z,3.3
2019-01-11T02:18:19.341Z,5.9
2019-01-11T02:20:18.983Z,6.3
2019-01-11T02:22:18.599Z,9.1
2019-01-11T02:24:19.200Z,7.1
2019-01-11T02:26:19.430Z,2.9
2019-01-11T02:28:19.040Z,8
2019-01-11T02:30:18.711Z,5.7
2019-01-11T02:32:19.357Z,9.5
2019-01-11T02:34:18.960Z,14.8
2019-01-11T02:36:19.164Z,9.4
2019-01-11T02:38:18.769Z,10.6
2019-01-11T02:40:18.807Z,7.5
2019-01-11T02:42:19.414Z,10.3
2019-01-11T02:44:19.011Z,5
2019-01-11T02:46:18.801Z,6.9
2019-01-11T02:48:19.415Z,7.4
2019-01-11T02:50:19.061Z,6.7
2019-01-11T02:52:18.668Z,13.5
2019-01-11T02:54:19.300Z,6.2
2019-01-11T02:56:18.554Z,5.8
2019-01-11T02:58:19.167Z,5.3
2019-01-11T03:00:18.811Z,4.8
2019-01-11T03:02:19.448Z,8.5
2019-01-11T03:04:19.108Z,6.3
2019-01-11T03:06:19.400Z,8.2
2019-01-11T03:08:19.052Z,5.4
2019-01-11T03:10:19.188Z,6
2019-01-11T03:12:18.848Z,6.3
2019-01-11T03:14:19.517Z,11.1
2019-01-11T03:16:19.465Z,11.6
2019-01-11T03:18:19.218Z,4.9
2019-01-11T03:20:18.928Z,11.4
2019-01-11T03:22:19.597Z,4.4
2019-01-11T03:24:19.278Z,9.9
2019-01-11T03:26:19.204Z,13.6
2019-01-11T03:28:18.855Z,8.1
2019-01-11T03:30:19.598Z,6.4
2019-01-11T03:32:19.249Z,8.6
2019-01-11T03:34:18.936Z,11.1
2019-01-11T03:36:19.272Z,9.7
2019-01-11T03:38:18.950Z,12.8
2019-01-11T03:40:19.259Z,12.3
2019-01-11T03:42:18.926Z,8.6
2019-01-11T03:44:19.591Z,8.4
2019-01-11T03:46:19.505Z,13.3
2019-01-11T03:48:19.204Z,8
2019-01-11T03:50:18.981Z,7.4
2019-01-11T03:52:18.684Z,9.3
2019-01-11T03:54:19.358Z,7.8
2019-01-11T03:56:19.217Z,8.1
2019-01-11T03:58:18.882Z,9.5
2019-01-11T04:00:19.559Z,12.6
2019-01-11T04:02:19.309Z,15.7
2019-01-11T04:04:19.012Z,7.8
2019-01-11T04:06:19.415Z,8.8
2019-01-11T04:08:19.115Z,17.7
2019-01-11T04:10:19.406Z,7.7
2019-01-11T04:12:19.058Z,10.4
2019-01-11T04:14:18.727Z,13
2019-01-11T04:16:19.158Z,9.5
2019-01-11T04:18:18.916Z,12.4
2019-01-11T04:20:19.630Z,9.5
2019-01-11T04:22:19.294Z,11.4
2019-01-11T04:24:18.976Z,10.4
2019-01-11T04:26:19.402Z,8.1
2019-01-11T04:28:19.071Z,8.7
2019-01-11T04:30:18.737Z,13.5
2019-01-11T04:32:19.443Z,8.6
2019-01-11T04:34:19.097Z,13.8
2019-01-11T04:36:19.449Z,10.7
2019-01-11T04:38:19.116Z,7.4
2019-01-11T04:40:19.251Z,12.2
2019-01-11T04:42:18.936Z,8.2
2019-01-11T04:44:19.598Z,7.8
2019-01-11T04:46:19.103Z,12.3
2019-01-11T04:48:18.772Z,11.2
2019-01-11T04:50:19.441Z,7.2
2019-01-11T04:52:19.127Z,11.3
2019-01-11T04:54:18.800Z,8.7
2019-01-11T04:56:19.255Z,4.9
2019-01-11T04:58:18.912Z,9
2019-01-11T05:00:19.589Z,13.6
2019-01-11T05:02:19.237Z,10.2
2019-01-11T05:04:18.916Z,10.7
2019-01-11T05:06:18.795Z,6
2019-01-11T05:08:19.464Z,8.9
2019-01-11T05:10:19.672Z,9.5
2019-01-11T05:12:19.334Z,8.3
2019-01-11T05:14:19.004Z,6
2019-01-11T05:16:19.462Z,10
2019-01-11T05:18:19.210Z,7.9
2019-01-11T05:20:18.907Z,15.3
2019-01-11T05:22:19.577Z,6.5
2019-01-11T05:24:19.259Z,11.5
2019-01-11T05:26:19.287Z,9.6
2019-01-11T05:28:18.952Z,11.4
2019-01-11T05:30:18.662Z,10.2
2019-01-11T05:32:19.318Z,9.7
2019-01-11T05:34:18.968Z,10.5
2019-01-11T05:36:19.286Z,7.7
2019-01-11T05:38:18.969Z,7.2
2019-01-11T05:40:19.159Z,9
2019-01-11T05:42:18.834Z,5.9
2019-01-11T05:44:19.516Z,12.4
2019-01-11T05:46:18.846Z,8.2
2019-01-11T05:48:19.523Z,9
2019-01-11T05:50:24.548Z,5.6
2019-01-11T05:52:19.232Z,8
2019-01-11T05:54:18.926Z,7.3
2019-01-11T05:56:18.808Z,9
2019-01-11T05:58:19.488Z,6.6
2019-01-11T06:00:19.164Z,8.9
2019-01-11T06:02:18.812Z,7
2019-01-11T06:04:19.475Z,6.7
2019-01-11T06:06:18.860Z,9.4
2019-01-11T06:08:19.549Z,10
2019-01-11T06:10:18.824Z,8.1
2019-01-11T06:12:19.489Z,7.3
2019-01-11T06:14:19.168Z,11.5
2019-01-11T06:16:19.526Z,6.2
2019-01-11T06:18:19.282Z,6
2019-01-11T06:20:18.976Z,5.2
2019-01-11T06:22:18.640Z,5.1
2019-01-11T06:24:19.312Z,8.3
2019-01-11T06:26:19.389Z,5.9
2019-01-11T06:28:19.062Z,7.1
2019-01-11T06:30:18.746Z,4.3
2019-01-11T06:32:19.409Z,5.6
2019-01-11T06:34:19.081Z,4.7
2019-01-11T06:36:19.260Z,3.6
2019-01-11T06:38:18.935Z,5.9
2019-01-11T06:40:19.098Z,3
2019-01-11T06:42:18.781Z,6.6
2019-01-11T06:44:19.440Z,4
2019-01-11T06:46:19.316Z,5.7
2019-01-11T06:48:18.974Z,5.1
2019-01-11T06:50:18.655Z,4.5
2019-01-11T06:52:19.341Z,3.5
2019-01-11T06:54:19.001Z,2.8
2019-01-11T06:56:19.526Z,3.8
2019-01-11T06:58:19.216Z,5.6
2019-01-11T07:00:18.927Z,4.1
2019-01-11T07:02:19.582Z,3.4
2019-01-11T07:04:19.255Z,3.3
2019-01-11T07:06:19.612Z,3
2019-01-11T07:08:19.305Z,5.2
2019-01-11T07:10:19.453Z,2.6
2019-01-11T07:12:19.131Z,3.1
2019-01-11T07:14:18.803Z,2.7
2019-01-11T07:16:18.651Z,2.6
2019-01-11T07:18:19.386Z,12.6
2019-01-11T07:20:19.084Z,2.5
2019-01-11T07:22:18.770Z,2.9
2019-01-11T07:24:19.446Z,3.5
2019-01-11T07:26:18.789Z,2.9
2019-01-11T07:28:19.465Z,3.6
2019-01-11T07:30:19.179Z,2.2
2019-01-11T07:32:18.852Z,2.3
2019-01-11T07:34:19.517Z,4.2
2019-01-11T07:36:19.418Z,2.9
2019-01-11T07:38:19.112Z,3.2
2019-01-11T07:40:19.278Z,2.3
2019-01-11T07:42:18.973Z,2.8
2019-01-11T07:44:18.670Z,3.9
2019-01-11T07:46:19.157Z,2.6
2019-01-11T07:48:18.815Z,2.3
2019-01-11T07:50:19.525Z,4.5
2019-01-11T07:52:19.230Z,1.8
2019-01-11T07:54:18.928Z,2.8
2019-01-11T07:56:19.351Z,2
2019-01-11T07:58:19.052Z,1.9
2019-01-11T08:00:18.845Z,5.7
2019-01-11T08:02:19.491Z,2.6
2019-01-11T08:04:19.169Z,1.7
2019-01-11T08:06:19.335Z,2.5
2019-01-11T08:08:19.020Z,1.7
2019-01-11T08:10:19.279Z,1.2
2019-01-11T08:12:18.937Z,2.1
2019-01-11T08:14:18.609Z,1.3
2019-01-11T08:16:18.748Z,9.4
2019-01-11T08:18:19.537Z,1.2
2019-01-11T08:20:19.238Z,1.5
2019-01-11T08:22:18.930Z,2.6
2019-01-11T08:24:19.586Z,1.1
2019-01-11T08:26:19.098Z,1.4
2019-01-11T08:28:18.761Z,1.2
2019-01-11T08:30:19.446Z,1.9
2019-01-11T08:32:19.118Z,1.3
2019-01-11T08:34:18.793Z,1.1
2019-01-11T08:36:19.173Z,1.2
2019-01-11T08:38:18.846Z,1.3
2019-01-11T08:40:18.982Z,1.6
2019-01-11T08:42:18.668Z,1.3
2019-01-11T08:44:19.339Z,2.7
2019-01-11T08:46:18.755Z,1.6
2019-01-11T08:48:19.433Z,1.1
2019-01-11T08:50:19.152Z,1.4
2019-01-11T08:52:18.829Z,1.2
2019-01-11T08:54:19.515Z,1.2
2019-01-11T08:56:18.832Z,1
2019-01-11T08:58:19.495Z,3.5
2019-01-11T09:00:19.250Z,1.7
2019-01-11T09:02:18.968Z,2.1
2019-01-11T09:04:18.625Z,2
2019-01-11T09:06:19.484Z,3.3
2019-01-11T09:08:19.174Z,1.5
2019-01-11T09:10:24.787Z,6.7
2019-01-11T09:12:19.531Z,1.2
2019-01-11T09:14:19.205Z,2
2019-01-11T09:16:21.065Z,6.5
2019-01-11T09:18:18.816Z,1.1
2019-01-11T09:20:19.505Z,3
2019-01-11T09:22:19.174Z,1.6
2019-01-11T09:24:18.861Z,1.5
2019-01-11T09:26:18.796Z,1.6
2019-01-11T09:28:19.466Z,1.9
2019-01-11T09:30:19.200Z,1.9
2019-01-11T09:32:19.623Z,4.5
2019-01-11T09:34:19.290Z,2
2019-01-11T09:36:19.202Z,2.4
2019-01-11T09:38:18.898Z,1.8
2019-01-11T09:40:19.111Z,1.7
2019-01-11T09:42:18.795Z,2.1
2019-01-11T09:44:19.463Z,2.3
2019-01-11T09:46:19.381Z,3.4
2019-01-11T09:48:19.028Z,2.8
2019-01-11T09:50:18.763Z,2.2
2019-01-11T09:52:19.310Z,2.7
2019-01-11T09:54:18.979Z,2.4
2019-01-11T09:56:19.019Z,2.7
2019-01-11T09:58:18.678Z,2.9
2019-01-11T10:00:19.377Z,2.3
2019-01-11T10:02:19.065Z,2.6
2019-01-11T10:04:18.749Z,3.3
2019-01-11T10:06:18.657Z,4.4
2019-01-11T10:08:19.313Z,2.6
2019-01-11T10:10:19.469Z,2.9
2019-01-11T10:12:19.146Z,3
2019-01-11T10:14:18.795Z,6.4
2019-01-11T10:16:19.129Z,4
2019-01-11T10:18:18.878Z,2.6
2019-01-11T10:20:19.528Z,3.4
2019-01-11T10:22:19.204Z,6.7
2019-01-11T10:24:18.877Z,5.6
2019-01-11T10:26:19.283Z,4.8
2019-01-11T10:28:18.935Z,11.2
2019-01-11T10:30:19.628Z,7.8
2019-01-11T10:32:19.287Z,5.3
2019-01-11T10:34:18.925Z,4.3
2019-01-11T10:36:19.239Z,4.8
2019-01-11T10:38:18.941Z,3.7
2019-01-11T10:40:19.105Z,8.1
2019-01-11T10:42:18.780Z,3.4
2019-01-11T10:44:19.479Z,5.3
2019-01-11T10:46:19.555Z,6
2019-01-11T10:48:19.233Z,4.2
2019-01-11T10:50:18.921Z,3.2
2019-01-11T10:52:19.569Z,6.1
2019-01-11T10:54:19.232Z,3.6
2019-01-11T10:56:19.575Z,5
2019-01-11T10:58:19.235Z,4.3
2019-01-11T11:00:18.896Z,7.1
2019-01-11T11:02:19.586Z,3.2
2019-01-11T11:04:19.267Z,8.3
2019-01-11T11:06:18.631Z,7.4
2019-01-11T11:08:19.274Z,4.1
2019-01-11T11:10:19.430Z,5.9
2019-01-11T11:12:18.836Z,3.1
2019-01-11T11:14:19.482Z,3.1
2019-01-11T11:16:18.818Z,4.8
2019-01-11T11:18:19.585Z,3.9
2019-01-11T11:20:19.312Z,6.4
2019-01-11T11:22:18.974Z,6
2019-01-11T11:24:18.628Z,3.6
2019-01-11T11:26:18.884Z,3.4
2019-01-11T11:28:19.549Z,2.7
2019-01-11T11:30:19.232Z,3.6
2019-01-11T11:32:18.916Z,3.6
2019-01-11T11:34:19.625Z,4
2019-01-11T11:36:18.665Z,4.8
2019-01-11T11:38:19.349Z,6.6
2019-01-11T11:40:19.485Z,4
2019-01-11T11:42:19.167Z,2.9
2019-01-11T11:44:18.817Z,2.6
2019-01-11T11:46:18.722Z,3.9
2019-01-11T11:48:19.363Z,2.5
2019-01-11T11:50:19.054Z,2.4
2019-01-11T11:52:18.714Z,2.7
2019-01-11T11:54:19.367Z,2.4
2019-01-11T11:56:18.788Z,3
2019-01-11T11:58:19.462Z,1.8
2019-01-11T12:00:19.150Z,2.2
2019-01-11T12:02:19.600Z,2.3
2019-01-11T12:04:19.332Z,2.1
2019-01-11T12:06:19.223Z,2.3
2019-01-11T12:08:18.906Z,4.4
2019-01-11T12:10:19.070Z,1.9
2019-01-11T12:12:18.728Z,2.6
2019-01-11T12:14:19.396Z,1.8
2019-01-11T12:16:19.280Z,3.5
2019-01-11T12:18:19.007Z,2.4
2019-01-11T12:20:18.676Z,2.9
2019-01-11T12:22:19.358Z,2.4
2019-01-11T12:24:19.032Z,2.4
2019-01-11T12:26:19.392Z,3
2019-01-11T12:28:19.061Z,2.1
2019-01-11T12:30:18.731Z,1.7
2019-01-11T12:32:19.913Z,1.7
2019-01-11T12:34:19.593Z,2.1
2019-01-11T12:36:18.944Z,1.7
2019-01-11T12:38:18.623Z,1.6
2019-01-11T12:40:18.802Z,2.6
2019-01-11T12:42:19.471Z,1.6
2019-01-11T12:44:19.153Z,1.4
2019-01-11T12:46:19.580Z,1.4
2019-01-11T12:48:19.251Z,2.3
2019-01-11T12:50:18.944Z,1.2
2019-01-11T12:52:18.628Z,1.9
2019-01-11T12:54:19.302Z,1.8
2019-01-11T12:56:19.179Z,2
2019-01-11T12:58:18.869Z,1.6
2019-01-11T13:00:19.545Z,1.5
2019-01-11T13:02:19.219Z,17.9
2019-01-11T13:04:18.891Z,2.8
2019-01-11T13:06:19.466Z,3.5
2019-01-11T13:08:19.149Z,2.7
2019-01-11T13:10:19.397Z,2.7
2019-01-11T13:12:19.066Z,1.4
2019-01-11T13:14:18.762Z,1
2019-01-11T13:16:19.061Z,1.6
2019-01-11T13:18:18.801Z,2
2019-01-11T13:20:19.459Z,2.2
2019-01-11T13:22:19.144Z,2.3
2019-01-11T13:24:18.835Z,2
2019-01-11T13:26:19.214Z,1.9
2019-01-11T13:28:18.901Z,1.3
2019-01-11T13:30:19.681Z,2.2
2019-01-11T13:32:19.343Z,3.2
2019-01-11T13:34:19.027Z,1.4
2019-01-11T13:36:18.611Z,1.2
2019-01-11T13:38:19.251Z,1.6
2019-01-11T13:40:19.426Z,2.4
2019-01-11T13:42:19.093Z,1.1
2019-01-11T13:44:18.772Z,1.6
2019-01-11T13:46:19.153Z,1.6
2019-01-11T13:48:18.812Z,1.8
2019-01-11T13:50:19.507Z,3.7
2019-01-11T13:52:19.155Z,1.3
2019-01-11T13:54:18.827Z,2.8
2019-01-11T13:56:19.145Z,1.3
2019-01-11T13:58:18.828Z,1.6
2019-01-11T14:00:19.578Z,1.2
2019-01-11T14:02:19.262Z,1.7
2019-01-11T14:04:18.904Z,4.3
2019-01-11T14:06:19.614Z,5.9
2019-01-11T14:08:19.315Z,1.7
2019-01-11T14:10:19.519Z,1.6
2019-01-11T14:12:19.438Z,3.8
2019-01-11T14:14:19.093Z,1
2019-01-11T14:16:18.728Z,2.6
2019-01-11T14:18:19.471Z,3.1
2019-01-11T14:20:19.152Z,2.2
2019-01-11T14:22:18.818Z,1.9
2019-01-11T14:24:19.500Z,1.8
2019-01-11T14:26:19.579Z,1.4
2019-01-11T14:28:19.230Z,1.4
2019-01-11T14:30:18.926Z,1.9
2019-01-11T14:32:18.598Z,1.8
2019-01-11T14:34:19.272Z,3
2019-01-11T14:36:19.184Z,3.1
2019-01-11T14:38:18.854Z,3.3
2019-01-11T14:40:19.008Z,2.6
2019-01-11T14:42:18.703Z,2.6
2019-01-11T14:44:19.403Z,3.2
2019-01-11T14:46:18.956Z,1.2
2019-01-11T14:48:18.624Z,1.4
2019-01-11T14:50:19.317Z,1.9
2019-01-11T14:52:20.761Z,2.2
2019-01-11T14:54:19.462Z,2.3
2019-01-11T14:56:18.906Z,1.9
2019-01-11T14:58:19.587Z,2.3
2019-01-11T15:00:19.280Z,1.9
2019-01-11T15:02:18.950Z,1.4
2019-01-11T15:04:18.788Z,2.1
2019-01-11T15:06:19.148Z,2.8
2019-01-11T15:08:18.822Z,3.8
2019-01-11T15:10:18.996Z,2.2
2019-01-11T15:12:18.688Z,1.3
2019-01-11T15:14:19.379Z,1.5
2019-01-11T15:16:18.724Z,2.8
2019-01-11T15:18:19.481Z,1.9
2019-01-11T15:20:19.162Z,2.5
2019-01-11T15:22:18.816Z,1.3
2019-01-11T15:24:19.484Z,2.2
2019-01-11T15:26:18.818Z,1.6
2019-01-11T15:28:19.482Z,2
2019-01-11T15:30:19.148Z,1.1
2019-01-11T15:32:19.154Z,1.5
2019-01-11T15:34:18.823Z,2.6
2019-01-11T15:36:19.029Z,2.2
2019-01-11T15:38:18.698Z,2.2
2019-01-11T15:40:18.861Z,1.7
2019-01-11T15:42:19.530Z,5.5
2019-01-11T15:44:19.212Z,1.6
2019-01-11T15:46:19.578Z,2
2019-01-11T15:48:19.300Z,1.5
2019-01-11T15:50:19.021Z,1.9
2019-01-11T15:52:18.678Z,2.9
2019-01-11T15:54:19.362Z,1.8
2019-01-11T15:56:19.382Z,6.2
2019-01-11T15:58:19.047Z,1.4
2019-01-11T16:00:18.813Z,2.4
2019-01-11T16:02:19.476Z,3.5
2019-01-11T16:04:19.163Z,1.8
2019-01-11T16:06:19.087Z,3.1
2019-01-11T16:08:18.754Z,2.8
2019-01-11T16:10:18.933Z,4.7
2019-01-11T16:12:18.895Z,2.4
2019-01-11T16:14:19.577Z,2.3
2019-01-11T16:16:18.949Z,2.3
2019-01-11T16:18:18.724Z,1.8
2019-01-11T16:20:19.396Z,3
2019-01-11T16:22:19.062Z,2.6
2019-01-11T16:24:18.751Z,2
2019-01-11T16:26:18.687Z,2.1
2019-01-11T16:28:19.341Z,3.8
2019-01-11T16:30:19.015Z,1.9
2019-01-11T16:32:18.716Z,2.3
2019-01-11T16:34:19.411Z,3.9
2019-01-11T16:36:19.281Z,2
2019-01-11T16:38:18.947Z,1.6
2019-01-11T16:40:19.116Z,2.1
2019-01-11T16:42:19.980Z,2.3
2019-01-11T16:44:18.659Z,1.9
2019-01-11T16:46:19.124Z,3
2019-01-11T16:48:18.807Z,2.4
2019-01-11T16:50:19.515Z,2.5
2019-01-11T16:52:19.622Z,2.1
2019-01-11T16:54:19.314Z,2.1
2019-01-11T16:56:19.049Z,6.3
2019-01-11T16:58:18.716Z,2.3
2019-01-11T17:00:19.386Z,3.4
2019-01-11T17:02:19.061Z,1.5
2019-01-11T17:04:18.777Z,5
2019-01-11T17:06:19.204Z,2.1
2019-01-11T17:08:20.318Z,2.5
2019-01-11T17:10:19.564Z,2.4
2019-01-11T17:12:19.252Z,2.4
2019-01-11T17:14:18.929Z,3.4
2019-01-11T17:16:19.284Z,3.7
2019-01-11T17:18:19.041Z,2.1
2019-01-11T17:20:18.732Z,2.5
2019-01-11T17:22:19.399Z,2.6
2019-01-11T17:24:19.065Z,3.2
2019-01-11T17:26:19.475Z,4
2019-01-11T17:28:19.188Z,2.5
2019-01-11T17:30:18.857Z,2.2
2019-01-11T17:32:19.645Z,4.1
2019-01-11T17:34:19.333Z,2.3
2019-01-11T17:36:18.716Z,5.1
2019-01-11T17:38:19.393Z,2.3
2019-01-11T17:40:19.542Z,2.4
2019-01-11T17:42:19.218Z,3
2019-01-11T17:44:18.894Z,2.1
2019-01-11T17:46:19.310Z,3.2
2019-01-11T17:48:19.009Z,6.4
2019-01-11T17:50:18.721Z,2.6
2019-01-11T17:52:19.380Z,2.1
2019-01-11T17:54:19.053Z,2.5
2019-01-11T17:56:19.111Z,2
2019-01-11T17:58:18.785Z,3.7
2019-01-11T18:00:19.479Z,4.8
2019-01-11T18:02:19.157Z,2
2019-01-11T18:04:18.878Z,3.1
2019-01-11T18:06:18.733Z,3
2019-01-11T18:08:19.466Z,3.4
2019-01-11T18:10:19.653Z,2.2
2019-01-11T18:12:20.360Z,9.3
2019-01-11T18:14:19.060Z,1.8
2019-01-11T18:16:19.489Z,0.8
2019-01-11T18:18:19.267Z,3.8
2019-01-11T18:20:18.978Z,4.5
2019-01-11T18:22:18.682Z,8
2019-01-11T18:24:19.364Z,7.9
2019-01-11T18:26:19.363Z,7.4
2019-01-11T18:28:19.054Z,6.2
2019-01-11T18:30:18.743Z,1.4
2019-01-11T18:32:19.342Z,9.8
2019-01-11T18:34:19.033Z,4.3
2019-01-11T18:36:19.473Z,7.1
2019-01-11T18:38:19.176Z,2
2019-01-11T18:40:19.342Z,2.5
2019-01-11T18:42:19.029Z,4.4
2019-01-11T18:44:18.724Z,2.3
2019-01-11T18:46:19.199Z,6.5
2019-01-11T18:48:18.882Z,10.5
2019-01-11T18:50:19.584Z,4.2
2019-01-11T18:52:19.254Z,2.4
2019-01-11T18:54:18.939Z,5.2
2019-01-11T18:56:18.852Z,3.6
2019-01-11T18:58:19.529Z,6
2019-01-11T19:00:20.869Z,6.6
2019-01-11T19:02:18.723Z,5.3
2019-01-11T19:04:19.403Z,1.1
2019-01-11T19:06:18.804Z,8
2019-01-11T19:08:19.502Z,11.9
2019-01-11T19:10:18.631Z,13.3
2019-01-11T19:12:19.304Z,5.6
2019-01-11T19:14:18.988Z,3.1
2019-01-11T19:16:18.893Z,7.6
2019-01-11T19:18:18.651Z,11.3
2019-01-11T19:20:19.409Z,12.4
2019-01-11T19:22:19.099Z,6.4
2019-01-11T19:24:18.783Z,9.1
2019-01-11T19:26:18.713Z,4.4
2019-01-11T19:28:19.402Z,5.9
2019-01-11T19:30:19.112Z,5.8
2019-01-11T19:32:18.765Z,8.6
2019-01-11T19:34:19.452Z,6.2
2019-01-11T19:36:19.050Z,11.7
2019-01-11T19:38:18.737Z,7.2
2019-01-11T19:40:18.967Z,8.6
2019-01-11T19:42:19.296Z,5.8
2019-01-11T19:44:18.963Z,7.4
2019-01-11T19:46:20.114Z,5
2019-01-11T19:48:18.821Z,10.1
2019-01-11T19:50:19.504Z,8.4
2019-01-11T19:52:19.176Z,6.1
2019-01-11T19:54:18.899Z,12.1
2019-01-11T19:56:19.074Z,9.7
2019-01-11T19:58:18.757Z,14.8
2019-01-11T20:00:19.482Z,7.4
2019-01-11T20:02:19.163Z,11.8
2019-01-11T20:04:18.877Z,4.4
2019-01-11T20:06:19.337Z,17.6
2019-01-11T20:08:19.026Z,4.8
2019-01-11T20:10:19.228Z,18.2
2019-01-11T20:12:18.924Z,12.4
2019-01-11T20:14:19.623Z,20
2019-01-11T20:16:19.547Z,6.6
2019-01-11T20:18:20.991Z,10.1
2019-01-11T20:20:18.691Z,13.1
2019-01-11T20:22:19.375Z,11.4
2019-01-11T20:24:19.055Z,15
2019-01-11T20:26:19.466Z,10.1
2019-01-11T20:28:19.153Z,9.3
2019-01-11T20:30:18.926Z,16.2
2019-01-11T20:32:18.634Z,22.2
2019-01-11T20:34:19.304Z,20.1
2019-01-11T20:36:18.674Z,12.3
2019-01-11T20:38:19.349Z,11.2
2019-01-11T20:40:19.562Z,8.9
2019-01-11T20:42:19.217Z,20.7
2019-01-11T20:44:18.895Z,13
2019-01-11T20:46:19.440Z,9.5
2019-01-11T20:48:19.147Z,3.8
2019-01-11T20:50:18.829Z,20.8
2019-01-11T20:52:18.826Z,6.9
2019-01-11T20:54:19.523Z,16.2
2019-01-11T20:56:18.868Z,20.6
2019-01-11T20:58:19.553Z,11.5
2019-01-11T21:00:19.246Z,18.7
2019-01-11T21:02:18.916Z,17.9
2019-01-11T21:04:19.590Z,16
2019-01-11T21:06:19.532Z,16.6
2019-01-11T21:08:19.200Z,15.8
2019-01-11T21:10:19.375Z,14.8
2019-01-11T21:12:18.819Z,19.5
2019-01-11T21:14:19.511Z,17.7
2019-01-11T21:16:18.976Z,13.8
2019-01-11T21:18:18.786Z,19.1
2019-01-11T21:20:19.654Z,3.9
2019-01-11T21:22:19.308Z,18.6
2019-01-11T21:24:18.971Z,15.8
2019-01-11T21:26:19.332Z,7.7
2019-01-11T21:28:19.038Z,13.4
2019-01-11T21:30:18.744Z,7.7
2019-01-11T21:32:19.418Z,11.3
2019-01-11T21:34:19.087Z,20.6
2019-01-11T21:36:18.990Z,10.6
2019-01-11T21:38:18.643Z,23.2
2019-01-11T21:40:18.863Z,16.7
2019-01-11T21:42:19.595Z,18.4
2019-01-11T21:44:19.787Z,15.4
2019-01-11T21:46:18.726Z,9.4
2019-01-11T21:48:19.395Z,10.4
2019-01-11T21:50:19.083Z,19.6
2019-01-11T21:52:18.775Z,13.9
2019-01-11T21:54:19.464Z,23.4
2019-01-11T21:56:19.396Z,9.7
2019-01-11T21:58:19.047Z,13.4
2019-01-11T22:00:18.803Z,16.2
2019-01-11T22:02:19.488Z,30.9
2019-01-11T22:04:19.185Z,27.1
2019-01-11T22:06:19.661Z,25.6
2019-01-11T22:08:19.378Z,9.1
2019-01-11T22:10:19.518Z,14.2
2019-01-11T22:12:19.200Z,20
2019-01-11T22:14:18.880Z,30.1
2019-01-11T22:16:19.320Z,11.7
2019-01-11T22:18:19.067Z,11.9
2019-01-11T22:20:18.776Z,9.8
2019-01-11T22:22:19.419Z,14.6
2019-01-11T22:24:19.097Z,16.9
2019-01-11T22:26:19.475Z,33.2
2019-01-11T22:28:19.152Z,27.3
2019-01-11T22:30:18.872Z,20.4
2019-01-11T22:32:19.554Z,19.3
2019-01-11T22:34:19.263Z,35.8
2019-01-11T22:36:19.108Z,14.6
2019-01-11T22:38:18.809Z,25.1
2019-01-11T22:40:18.966Z,7.6
2019-01-11T22:42:18.651Z,25.1
2019-01-11T22:44:19.335Z,31.6
2019-01-11T22:46:19.281Z,22.7
2019-01-11T22:48:18.984Z,18.3
2019-01-11T22:50:18.683Z,17.9
2019-01-11T22:52:19.359Z,27.1
2019-01-11T22:54:19.026Z,27.9
2019-01-11T22:56:19.349Z,20.4
2019-01-11T22:58:19.014Z,12.3
2019-01-11T23:00:18.730Z,30.8
2019-01-11T23:02:19.415Z,26.8
2019-01-11T23:04:19.075Z,19.5
2019-01-11T23:06:19.141Z,24.9
2019-01-11T23:08:18.815Z,25.4
2019-01-11T23:10:18.992Z,14.1
2019-01-11T23:12:18.668Z,20.3
2019-01-11T23:14:19.368Z,20.8
2019-01-11T23:16:18.785Z,25.4
2019-01-11T23:18:19.542Z,22.7
2019-01-11T23:20:19.227Z,25.8
2019-01-11T23:22:18.909Z,24.9
2019-01-11T23:24:19.588Z,19.8
2019-01-11T23:26:19.050Z,25.9
2019-01-11T23:28:18.696Z,17.8
2019-01-11T23:30:19.398Z,25.8
2019-01-11T23:32:19.049Z,14.3
2019-01-11T23:34:18.731Z,12.5
2019-01-11T23:36:19.163Z,23.2
2019-01-11T23:38:18.853Z,20
2019-01-11T23:40:19.064Z,34.1
2019-01-11T23:42:18.753Z,36
2019-01-11T23:44:19.458Z,24.1
2019-01-11T23:46:19.412Z,26.9
2019-01-11T23:48:19.095Z,19.4
2019-01-11T23:50:18.829Z,21.8
2019-01-11T23:52:19.517Z,18.4
2019-01-11T23:54:24.832Z,28
2019-01-11T23:56:19.170Z,33
2019-01-11T23:58:18.881Z,20.4
